Time;durP1;ratioP1;P1;durP2;ratioP2;P2;SDS_P1;SDS_P2;PMS_P1;PMS_P2;Temp;Humidity;BMP_temperature;BMP_pressure;BME280_temperature;BME280_humidity;BME280_pressure;Samples;Min_cycle;Max_cycle;Signal;HPM_P1;HPM_P2
2022/06/27 00:01:41;;;;;;;0.40;0.30;;;19.00;99.90;;;;;;4993867;28;20455;-83
2022/06/27 00:04:08;;;;;;;1.03;0.30;;;18.80;99.90;;;;;;4993861;28;20447;-84
2022/06/27 00:06:35;;;;;;;0.40;0.30;;;18.60;99.90;;;;;;4993762;28;20486;-84
2022/06/27 00:09:03;;;;;;;0.30;0.30;;;18.50;99.90;;;;;;4993588;28;20492;-84
2022/06/27 00:11:30;;;;;;;0.30;0.30;;;18.40;99.90;;;;;;4993767;28;20455;-83
2022/06/27 00:13:56;;;;;;;0.30;0.30;;;18.40;99.90;;;;;;4993736;28;20452;-84
2022/06/27 00:16:23;;;;;;;1.33;0.30;;;18.30;99.90;;;;;;4994479;28;20857;-83
2022/06/27 00:18:50;;;;;;;0.60;0.50;;;18.10;99.90;;;;;;4998152;28;20448;-83
2022/06/27 00:21:17;;;;;;;0.60;0.30;;;18.10;99.90;;;;;;4997572;28;20451;-83
2022/06/27 00:23:44;;;;;;;0.30;0.30;;;18.00;99.90;;;;;;4997208;28;20832;-83
2022/06/27 00:26:12;;;;;;;0.30;0.30;;;17.90;99.90;;;;;;4997402;28;20468;-83
2022/06/27 00:28:39;;;;;;;0.40;0.30;;;17.80;99.90;;;;;;4997195;28;20448;-84
2022/06/27 00:31:06;;;;;;;0.30;0.30;;;17.80;99.90;;;;;;4997193;28;20436;-85
2022/06/27 00:33:33;;;;;;;0.30;0.30;;;17.80;99.90;;;;;;4997518;28;20461;-85
2022/06/27 00:35:59;;;;;;;0.30;0.30;;;17.70;99.90;;;;;;4997124;28;20480;-86
2022/06/27 00:38:26;;;;;;;0.30;0.30;;;17.70;99.90;;;;;;4997387;28;20895;-87
2022/06/27 00:40:53;;;;;;;0.40;0.30;;;17.60;99.90;;;;;;4997581;28;20953;-87
2022/06/27 00:43:21;;;;;;;0.30;0.30;;;17.60;99.90;;;;;;4997912;28;20454;-88
2022/06/27 00:45:48;;;;;;;0.40;0.30;;;17.60;99.90;;;;;;4997875;28;20480;-88
2022/06/27 00:48:14;;;;;;;0.80;0.77;;;17.50;99.90;;;;;;4997926;28;20456;-88
2022/06/27 00:50:41;;;;;;;0.30;0.30;;;17.40;99.90;;;;;;4997730;28;20949;-87
2022/06/27 00:53:10;;;;;;;0.50;0.50;;;17.40;99.90;;;;;;4998381;28;20459;-89
2022/06/27 00:55:36;;;;;;;0.30;0.30;;;17.30;99.90;;;;;;4997569;28;20968;-87
2022/06/27 00:58:03;;;;;;;0.40;0.40;;;17.20;99.90;;;;;;4997179;28;20540;-87
2022/06/27 01:00:31;;;;;;;0.30;0.30;;;17.10;99.90;;;;;;4996900;28;20941;-87
2022/06/27 01:02:58;;;;;;;0.53;0.53;;;17.10;99.90;;;;;;4996833;28;20451;-86
2022/06/27 01:05:25;;;;;;;0.40;0.30;;;17.10;99.90;;;;;;4996927;28;20460;-87
2022/06/27 01:07:52;;;;;;;1.80;0.40;;;17.10;99.90;;;;;;4997174;28;20480;-87
2022/06/27 01:10:19;;;;;;;0.30;0.30;;;17.10;99.90;;;;;;4996944;28;20452;-87
2022/06/27 01:12:47;;;;;;;1.30;0.80;;;17.10;99.90;;;;;;4996999;28;20803;-87
2022/06/27 01:15:14;;;;;;;0.40;0.30;;;17.00;99.90;;;;;;4996553;28;20503;-87
2022/06/27 01:17:43;;;;;;;0.40;0.30;;;17.00;99.90;;;;;;4996932;28;20449;-87
2022/06/27 01:20:11;;;;;;;0.40;0.30;;;17.00;99.90;;;;;;4996892;28;20440;-87
2022/06/27 01:22:39;;;;;;;0.30;0.30;;;17.00;99.90;;;;;;4997005;28;20464;-87
2022/06/27 01:25:08;;;;;;;0.30;0.30;;;17.00;99.90;;;;;;4996817;28;20463;-87
2022/06/27 01:27:35;;;;;;;0.30;0.20;;;17.00;99.90;;;;;;4996317;28;20480;-87
2022/06/27 01:30:02;;;;;;;0.30;0.30;;;17.00;99.90;;;;;;4996416;28;20441;-87
2022/06/27 01:32:29;;;;;;;0.30;0.30;;;16.90;99.90;;;;;;4996738;28;20866;-87
2022/06/27 01:34:56;;;;;;;0.30;0.20;;;17.00;99.90;;;;;;4996502;28;20444;-87
2022/06/27 01:37:23;;;;;;;0.30;0.30;;;16.90;99.90;;;;;;4996368;28;20507;-87
2022/06/27 01:39:51;;;;;;;0.53;0.30;;;16.90;99.90;;;;;;4996066;28;20944;-86
2022/06/27 01:42:17;;;;;;;0.93;0.50;;;16.80;99.90;;;;;;4996833;28;20433;-86
2022/06/27 01:44:44;;;;;;;0.30;0.30;;;16.70;99.90;;;;;;4996032;28;20432;-86
2022/06/27 01:47:11;;;;;;;0.30;0.30;;;16.70;99.90;;;;;;4996356;28;20452;-87
2022/06/27 01:49:39;;;;;;;0.30;0.20;;;16.60;99.90;;;;;;4997304;28;20460;-87
2022/06/27 01:52:07;;;;;;;0.37;0.30;;;16.50;99.90;;;;;;4996574;28;20445;-87
2022/06/27 01:54:35;;;;;;;0.30;0.20;;;16.50;99.90;;;;;;4996562;28;20452;-87
2022/06/27 01:57:04;;;;;;;0.30;0.30;;;16.50;99.90;;;;;;4996147;28;20487;-87
2022/06/27 01:59:32;;;;;;;0.30;0.20;;;16.50;99.90;;;;;;4996503;28;20440;-87
2022/06/27 02:02:05;;;;;;;0.40;0.30;;;16.60;99.90;;;;;;4996053;28;20451;-87
2022/06/27 02:04:32;;;;;;;0.30;0.30;;;16.60;99.90;;;;;;4996318;28;20453;-87
2022/06/27 02:07:00;;;;;;;0.30;0.30;;;16.60;99.90;;;;;;4995914;28;20468;-87
2022/06/27 02:09:27;;;;;;;0.30;0.30;;;16.50;99.90;;;;;;4996064;28;20467;-87
2022/06/27 02:11:55;;;;;;;0.30;0.20;;;16.50;99.90;;;;;;4996137;28;20452;-87
2022/06/27 02:14:24;;;;;;;0.30;0.30;;;16.60;99.90;;;;;;4996003;28;20445;-87
2022/06/27 02:16:51;;;;;;;0.30;0.30;;;16.60;99.90;;;;;;4995673;28;20484;-87
2022/06/27 02:19:20;;;;;;;0.30;0.30;;;16.60;99.90;;;;;;4995556;28;20452;-87
2022/06/27 02:21:47;;;;;;;0.40;0.30;;;16.60;99.90;;;;;;4995767;28;20460;-87
2022/06/27 02:24:14;;;;;;;0.30;0.20;;;16.70;99.90;;;;;;4996428;28;20821;-87
2022/06/27 02:26:42;;;;;;;0.30;0.30;;;16.70;99.90;;;;;;4995771;28;20460;-87
2022/06/27 02:29:09;;;;;;;0.60;0.40;;;16.70;99.90;;;;;;4995650;28;20448;-86
2022/06/27 02:31:45;;;;;;;0.30;0.30;;;16.70;99.90;;;;;;4995666;28;20475;-87
2022/06/27 02:34:12;;;;;;;0.40;0.40;;;16.70;99.90;;;;;;4996004;28;20417;-87
2022/06/27 02:36:41;;;;;;;0.40;0.30;;;16.70;99.90;;;;;;4995532;28;20561;-87
2022/06/27 02:39:08;;;;;;;0.40;0.30;;;16.70;99.90;;;;;;4995073;28;20444;-87
2022/06/27 02:41:39;;;;;;;0.30;0.30;;;16.70;99.90;;;;;;4994985;28;20452;-87
2022/06/27 02:44:08;;;;;;;0.40;0.33;;;16.60;99.90;;;;;;4995503;28;20413;-87
2022/06/27 02:46:38;;;;;;;0.30;0.30;;;16.60;99.90;;;;;;4995366;28;20472;-87
2022/06/27 02:49:05;;;;;;;0.57;0.50;;;16.60;99.90;;;;;;4995347;28;20436;-87
2022/06/27 02:51:42;;;;;;;0.30;0.30;;;16.60;99.90;;;;;;4995405;28;20913;-87
2022/06/27 02:54:11;;;;;;;0.30;0.20;;;16.60;99.90;;;;;;4995353;28;20471;-87
2022/06/27 02:56:44;;;;;;;0.30;0.30;;;16.60;99.90;;;;;;4994875;28;20499;-87
2022/06/27 02:59:15;;;;;;;0.30;0.30;;;16.60;99.90;;;;;;4995029;28;20441;-86
2022/06/27 03:01:45;;;;;;;0.40;0.30;;;16.70;99.90;;;;;;4994925;28;20422;-87
2022/06/27 03:04:12;;;;;;;0.43;0.43;;;16.60;99.90;;;;;;4994965;28;20452;-87
2022/06/27 03:06:38;;;;;;;0.30;0.30;;;16.60;99.90;;;;;;4994920;28;20475;-87
2022/06/27 03:09:05;;;;;;;0.47;0.47;;;16.60;99.90;;;;;;4994625;28;20480;-87
2022/06/27 03:11:32;;;;;;;0.30;0.30;;;16.60;99.90;;;;;;4994654;28;20437;-87
2022/06/27 03:13:59;;;;;;;0.40;0.40;;;16.60;99.90;;;;;;4994565;28;21128;-87
2022/06/27 03:16:26;;;;;;;0.60;0.60;;;16.60;99.90;;;;;;4994605;28;20487;-87
2022/06/27 03:18:54;;;;;;;0.40;0.30;;;16.60;99.90;;;;;;4995039;28;20448;-87
2022/06/27 03:21:21;;;;;;;0.40;0.30;;;16.60;99.90;;;;;;4994549;28;20929;-87
2022/06/27 03:23:49;;;;;;;0.40;0.30;;;16.60;99.90;;;;;;4994466;28;20432;-87
2022/06/27 03:26:17;;;;;;;0.40;0.30;;;16.60;99.90;;;;;;4994481;28;20475;-86
2022/06/27 03:28:44;;;;;;;0.30;0.30;;;16.60;99.90;;;;;;4994413;28;20475;-86
2022/06/27 03:31:11;;;;;;;0.30;0.30;;;16.50;99.90;;;;;;4994405;28;20453;-86
2022/06/27 03:33:38;;;;;;;0.30;0.30;;;16.50;99.90;;;;;;4994324;28;20445;-87
2022/06/27 03:36:07;;;;;;;0.30;0.30;;;16.50;99.90;;;;;;4994027;28;20457;-86
2022/06/27 03:38:34;;;;;;;0.30;0.30;;;16.50;99.90;;;;;;4994832;28;20460;-87
2022/06/27 03:41:01;;;;;;;1.20;0.40;;;16.60;99.90;;;;;;4994345;28;20455;-86
2022/06/27 03:43:28;;;;;;;0.43;0.40;;;16.60;99.90;;;;;;4994431;28;20452;-87
2022/06/27 03:45:55;;;;;;;0.40;0.40;;;16.60;99.90;;;;;;4993984;28;20457;-86
2022/06/27 03:51:07;;;;;;;0.40;0.40;;;16.50;99.90;;;;;;4995609;28;20459;-86
2022/06/27 03:53:34;;;;;;;0.30;0.30;;;16.40;99.90;;;;;;5000633;28;20456;-86
2022/06/27 03:56:01;;;;;;;0.40;0.30;;;16.40;99.90;;;;;;5000484;28;20472;-86
2022/06/27 03:58:28;;;;;;;0.40;0.30;;;16.40;99.90;;;;;;5000535;28;20429;-86
2022/06/27 04:00:55;;;;;;;0.60;0.30;;;16.40;99.90;;;;;;5000838;28;20460;-86
2022/06/27 04:03:21;;;;;;;0.37;0.27;;;16.40;99.90;;;;;;5000560;28;20444;-86
2022/06/27 04:05:48;;;;;;;0.30;0.30;;;16.40;99.90;;;;;;5000482;28;20458;-86
2022/06/27 04:08:17;;;;;;;0.60;0.43;;;16.50;99.90;;;;;;5000055;28;20482;-86
2022/06/27 04:10:43;;;;;;;0.40;0.30;;;16.40;99.90;;;;;;5000722;28;20977;-87
2022/06/27 04:13:10;;;;;;;0.40;0.40;;;16.40;99.90;;;;;;5000718;28;20447;-87
2022/06/27 04:15:37;;;;;;;1.10;0.53;;;16.40;99.90;;;;;;5000256;28;21002;-85
2022/06/27 04:18:04;;;;;;;0.40;0.33;;;16.40;99.90;;;;;;5000214;28;20488;-86
2022/06/27 04:20:31;;;;;;;0.40;0.40;;;16.40;99.90;;;;;;5000284;28;20452;-85
2022/06/27 04:22:57;;;;;;;0.43;0.37;;;16.40;99.90;;;;;;5000271;28;20448;-85
2022/06/27 04:25:25;;;;;;;1.10;0.60;;;16.40;99.90;;;;;;5000203;28;20477;-85
2022/06/27 04:27:52;;;;;;;0.40;0.33;;;16.50;99.90;;;;;;5000282;28;20432;-85
2022/06/27 04:30:19;;;;;;;0.40;0.30;;;16.50;99.90;;;;;;5000006;28;20436;-85
2022/06/27 04:32:48;;;;;;;2.20;0.30;;;16.50;99.90;;;;;;5000184;28;20471;-85
2022/06/27 04:35:15;;;;;;;0.40;0.40;;;16.60;99.90;;;;;;5000066;28;20467;-85
2022/06/27 04:37:43;;;;;;;0.50;0.47;;;16.60;99.90;;;;;;5000060;28;20491;-85
2022/06/27 04:40:12;;;;;;;0.53;0.53;;;16.60;99.90;;;;;;5000047;28;20486;-85
2022/06/27 04:42:43;;;;;;;0.83;0.40;;;16.70;99.90;;;;;;5000146;28;20819;-85
2022/06/27 04:45:13;;;;;;;0.87;0.80;;;16.70;99.90;;;;;;5000007;28;20518;-84
2022/06/27 04:47:42;;;;;;;0.40;0.30;;;16.80;99.90;;;;;;5000142;28;20444;-85
2022/06/27 04:50:10;;;;;;;1.47;0.47;;;16.80;99.90;;;;;;5000058;28;20456;-84
2022/06/27 04:52:39;;;;;;;0.33;0.30;;;16.80;99.90;;;;;;5000299;28;20455;-85
2022/06/27 04:55:08;;;;;;;0.50;0.40;;;16.90;99.90;;;;;;4999763;28;20472;-84
2022/06/27 04:57:35;;;;;;;0.30;0.30;;;16.90;99.90;;;;;;4999756;28;20941;-85
2022/06/27 05:00:11;;;;;;;0.30;0.30;;;17.10;99.90;;;;;;4999694;28;20456;-85
2022/06/27 05:02:47;;;;;;;0.47;0.47;;;17.20;99.90;;;;;;4999035;28;20448;-85
2022/06/27 05:05:14;;;;;;;0.40;0.30;;;17.30;99.90;;;;;;4997042;28;20460;-85
2022/06/27 05:07:43;;;;;;;0.40;0.40;;;17.30;99.90;;;;;;4996682;28;20495;-85
2022/06/27 05:10:10;;;;;;;0.40;0.30;;;17.30;99.90;;;;;;4996502;28;20461;-85
2022/06/27 05:12:37;;;;;;;0.60;0.40;;;17.40;99.90;;;;;;4996382;28;20456;-84
2022/06/27 05:15:06;;;;;;;0.50;0.50;;;17.50;99.90;;;;;;4996594;28;20464;-84
2022/06/27 05:17:35;;;;;;;0.57;0.40;;;17.60;99.90;;;;;;4996518;28;20849;-84
2022/06/27 05:20:03;;;;;;;0.40;0.40;;;17.60;99.90;;;;;;4996332;28;20444;-84
2022/06/27 05:22:38;;;;;;;0.40;0.30;;;17.60;99.90;;;;;;4996565;28;20444;-84
2022/06/27 05:25:10;;;;;;;0.40;0.40;;;17.70;99.90;;;;;;4996369;28;20480;-84
2022/06/27 05:27:41;;;;;;;0.70;0.47;;;17.60;99.90;;;;;;4996486;28;20433;-84
2022/06/27 05:30:11;;;;;;;0.40;0.40;;;17.70;99.90;;;;;;4996255;28;20480;-84
2022/06/27 05:32:38;;;;;;;0.40;0.40;;;17.70;99.90;;;;;;4996366;28;20457;-84
2022/06/27 05:35:08;;;;;;;0.40;0.40;;;17.70;99.90;;;;;;4996227;28;20464;-83
2022/06/27 05:37:37;;;;;;;0.70;0.40;;;17.80;99.90;;;;;;4996103;28;20469;-84
2022/06/27 05:40:05;;;;;;;0.60;0.60;;;17.80;99.90;;;;;;4996895;28;21008;-84
2022/06/27 05:42:32;;;;;;;1.50;1.33;;;17.90;99.90;;;;;;4996135;28;20452;-84
2022/06/27 05:44:59;;;;;;;1.17;0.30;;;17.80;99.90;;;;;;4995970;28;20472;-84
2022/06/27 05:47:27;;;;;;;0.57;0.57;;;17.80;99.90;;;;;;4995851;28;20451;-84
2022/06/27 05:49:54;;;;;;;0.50;0.40;;;17.80;99.90;;;;;;4996239;28;20448;-83
2022/06/27 05:52:22;;;;;;;1.17;0.50;;;17.80;99.90;;;;;;4995620;28;20514;-84
2022/06/27 05:54:49;;;;;;;2.93;0.50;;;17.80;99.90;;;;;;4995831;28;20879;-84
2022/06/27 05:57:16;;;;;;;0.50;0.40;;;17.80;99.90;;;;;;4995804;28;20484;-83
2022/06/27 05:59:44;;;;;;;0.67;0.60;;;17.80;99.90;;;;;;4995795;28;20455;-84
2022/06/27 06:02:11;;;;;;;0.57;0.53;;;17.80;99.90;;;;;;4995869;28;20815;-84
2022/06/27 06:04:39;;;;;;;0.50;0.50;;;17.80;99.90;;;;;;4995634;28;20432;-83
2022/06/27 06:07:13;;;;;;;1.07;0.40;;;17.80;99.90;;;;;;4995467;28;20449;-83
2022/06/27 06:09:43;;;;;;;0.50;0.47;;;17.80;99.90;;;;;;4996069;28;20429;-83
2022/06/27 06:12:15;;;;;;;1.00;0.47;;;17.80;99.90;;;;;;4995612;28;20452;-84
2022/06/27 06:14:43;;;;;;;1.23;0.60;;;17.80;99.90;;;;;;4995450;28;20437;-84
2022/06/27 06:17:12;;;;;;;0.60;0.53;;;17.80;99.90;;;;;;4995730;28;20512;-84
2022/06/27 06:19:42;;;;;;;0.40;0.40;;;17.80;99.90;;;;;;4995309;28;20465;-84
2022/06/27 06:22:12;;;;;;;0.60;0.60;;;17.90;99.90;;;;;;4995831;28;20448;-84
2022/06/27 06:24:40;;;;;;;0.90;0.60;;;18.00;99.90;;;;;;4995169;28;20441;-84
2022/06/27 06:27:09;;;;;;;0.40;0.30;;;18.10;99.90;;;;;;4995390;28;20903;-84
2022/06/27 06:29:37;;;;;;;1.30;0.70;;;18.40;99.90;;;;;;4994908;28;20460;-84
2022/06/27 06:32:05;;;;;;;0.63;0.50;;;18.60;99.90;;;;;;4994798;28;20464;-84
2022/06/27 06:34:34;;;;;;;0.50;0.50;;;18.80;99.90;;;;;;4995027;28;20536;-84
2022/06/27 06:37:05;;;;;;;0.40;0.30;;;19.00;99.90;;;;;;4994882;28;20481;-84
2022/06/27 06:39:33;;;;;;;1.10;1.10;;;19.20;99.90;;;;;;4995457;28;20492;-84
2022/06/27 06:42:01;;;;;;;0.50;0.50;;;19.40;99.90;;;;;;4994820;28;20484;-84
2022/06/27 06:44:30;;;;;;;0.40;0.40;;;19.70;99.90;;;;;;4994687;28;20459;-84
2022/06/27 06:47:00;;;;;;;1.47;0.50;;;19.90;99.90;;;;;;4994624;28;20551;-84
2022/06/27 06:49:31;;;;;;;0.70;0.70;;;20.20;99.90;;;;;;4994752;28;20447;-84
2022/06/27 06:52:00;;;;;;;1.43;0.40;;;20.60;99.90;;;;;;4994555;28;20456;-84
2022/06/27 06:54:32;;;;;;;0.60;0.60;;;20.60;99.90;;;;;;4994413;28;20464;-84
2022/06/27 06:56:59;;;;;;;1.93;0.70;;;20.80;99.90;;;;;;4994331;28;20587;-84
2022/06/27 06:59:27;;;;;;;0.47;0.40;;;20.90;99.90;;;;;;4994788;28;20456;-83
2022/06/27 07:01:54;;;;;;;0.40;0.40;;;21.10;99.90;;;;;;4994807;28;20467;-84
2022/06/27 07:04:23;;;;;;;0.37;0.33;;;21.10;99.90;;;;;;4995002;28;20466;-84
2022/06/27 07:06:53;;;;;;;0.47;0.47;;;21.00;99.90;;;;;;4994430;28;20964;-84
2022/06/27 07:09:19;;;;;;;0.50;0.40;;;20.80;99.90;;;;;;4994240;28;20519;-83
2022/06/27 07:11:47;;;;;;;1.23;0.50;;;20.70;99.90;;;;;;4994705;28;20436;-84
2022/06/27 07:14:15;;;;;;;0.30;0.30;;;20.60;99.90;;;;;;4994209;28;20443;-84
2022/06/27 07:16:43;;;;;;;0.50;0.40;;;20.70;99.90;;;;;;4994371;28;20476;-84
2022/06/27 07:19:10;;;;;;;0.40;0.40;;;20.80;99.90;;;;;;4994076;28;20868;-84
2022/06/27 07:21:37;;;;;;;0.40;0.30;;;21.00;99.90;;;;;;4994392;28;20811;-84
2022/06/27 07:24:08;;;;;;;0.40;0.40;;;21.20;99.90;;;;;;4994323;28;20451;-84
2022/06/27 07:26:36;;;;;;;0.40;0.40;;;21.30;99.90;;;;;;4993667;28;20817;-84
2022/06/27 07:29:05;;;;;;;0.50;0.40;;;21.20;99.90;;;;;;4994662;28;20555;-84
2022/06/27 07:31:32;;;;;;;1.70;0.40;;;21.20;99.90;;;;;;4994225;28;20444;-84
2022/06/27 07:34:00;;;;;;;0.80;0.50;;;21.20;99.90;;;;;;4993949;28;20432;-84
2022/06/27 07:36:28;;;;;;;0.40;0.40;;;21.30;99.90;;;;;;4994113;28;20471;-84
2022/06/27 07:38:55;;;;;;;0.40;0.40;;;21.40;99.90;;;;;;4993803;28;20472;-85
2022/06/27 07:41:23;;;;;;;0.50;0.50;;;21.40;99.90;;;;;;4993805;28;20460;-84
2022/06/27 07:43:51;;;;;;;0.40;0.30;;;21.40;99.90;;;;;;4993859;28;20823;-84
2022/06/27 07:46:20;;;;;;;0.37;0.37;;;21.30;99.90;;;;;;4994022;28;20566;-84
2022/06/27 07:48:47;;;;;;;0.50;0.50;;;21.30;99.90;;;;;;4993756;28;21040;-85
2022/06/27 07:51:16;;;;;;;0.40;0.30;;;21.20;99.90;;;;;;4994038;28;20455;-84
2022/06/27 07:53:47;;;;;;;0.73;0.40;;;21.20;99.90;;;;;;4993999;28;20455;-84
2022/06/27 07:56:14;;;;;;;0.50;0.50;;;21.20;99.90;;;;;;4993997;28;20547;-84
2022/06/27 07:58:42;;;;;;;0.40;0.40;;;21.60;99.90;;;;;;4993897;28;20479;-85
2022/06/27 08:01:10;;;;;;;0.40;0.30;;;22.10;99.90;;;;;;4994136;28;20447;-85
2022/06/27 08:03:43;;;;;;;0.50;0.50;;;22.40;99.90;;;;;;4993821;28;20204;-85
2022/06/27 08:06:12;;;;;;;0.40;0.30;;;22.60;99.90;;;;;;4993861;28;20221;-85
2022/06/27 08:08:41;;;;;;;0.50;0.50;;;22.70;99.90;;;;;;4993625;28;20239;-85
2022/06/27 08:11:10;;;;;;;0.60;0.50;;;22.80;99.90;;;;;;4993766;28;20255;-85
2022/06/27 08:13:37;;;;;;;0.40;0.30;;;22.90;99.90;;;;;;4994043;28;20216;-85
2022/06/27 08:16:05;;;;;;;0.40;0.40;;;23.00;99.90;;;;;;4993446;28;20225;-85
2022/06/27 08:18:32;;;;;;;0.55;0.40;;;23.10;99.90;;;;;;4993830;28;20283;-84
2022/06/27 08:21:01;;;;;;;0.40;0.40;;;23.10;99.90;;;;;;4993719;28;20201;-84
2022/06/27 08:23:31;;;;;;;0.40;0.40;;;23.20;99.90;;;;;;4993981;28;20205;-84
2022/06/27 08:25:59;;;;;;;0.50;0.43;;;23.10;99.90;;;;;;4993542;28;20330;-85
2022/06/27 08:28:28;;;;;;;3.10;0.70;;;23.10;99.90;;;;;;4993676;28;20232;-84
2022/06/27 08:30:55;;;;;;;0.40;0.40;;;23.20;99.90;;;;;;4993676;28;20207;-84
2022/06/27 08:33:23;;;;;;;0.40;0.30;;;23.20;99.90;;;;;;4993786;28;20212;-84
2022/06/27 08:35:51;;;;;;;0.40;0.40;;;23.10;99.90;;;;;;4993584;28;20256;-84
2022/06/27 08:38:22;;;;;;;0.45;0.40;;;23.00;99.90;;;;;;4994685;28;20225;-85
2022/06/27 08:40:50;;;;;;;0.50;0.50;;;22.90;99.90;;;;;;4997316;28;20203;-85
2022/06/27 08:43:18;;;;;;;0.50;0.50;;;22.90;99.90;;;;;;4996955;28;20664;-84
2022/06/27 08:45:47;;;;;;;0.47;0.43;;;22.90;99.90;;;;;;4997399;28;20228;-84
2022/06/27 08:48:14;;;;;;;0.40;0.40;;;22.80;99.90;;;;;;4997396;28;20200;-84
2022/06/27 08:50:43;;;;;;;0.40;0.40;;;22.70;99.90;;;;;;4997355;28;20201;-84
2022/06/27 08:53:12;;;;;;;1.58;0.40;;;22.60;99.90;;;;;;4997317;28;20205;-84
2022/06/27 08:55:45;;;;;;;0.40;0.40;;;22.50;99.90;;;;;;4997075;28;20228;-78
2022/06/27 08:58:12;;;;;;;0.40;0.40;;;22.50;99.90;;;;;;4996588;28;20676;-80
2022/06/27 09:00:41;;;;;;;0.52;0.50;;;22.30;99.90;;;;;;4997017;28;20247;-84
2022/06/27 09:03:08;;;;;;;0.60;0.60;;;22.20;99.90;;;;;;4997070;28;20551;-89
2022/06/27 09:05:36;;;;;;;0.40;0.40;;;22.00;99.90;;;;;;4996768;28;20236;-80
2022/06/27 09:08:04;;;;;;;0.70;0.50;;;21.90;99.90;;;;;;4996627;28;20291;-85
2022/06/27 09:10:34;;;;;;;0.50;0.50;;;21.90;99.90;;;;;;4996715;28;20196;-84
2022/06/27 09:13:06;;;;;;;0.53;0.40;;;21.80;99.90;;;;;;4996733;28;20436;-84
2022/06/27 09:15:50;;;;;;;0.50;0.50;;;21.70;99.90;;;;;;4997080;28;20813;-84
2022/06/27 09:18:18;;;;;;;0.60;0.50;;;21.60;99.90;;;;;;4996572;28;20955;-84
2022/06/27 09:20:51;;;;;;;0.40;0.40;;;21.60;99.90;;;;;;4996708;28;20452;-84
2022/06/27 09:23:42;;;;;;;1.53;0.60;;;21.50;99.90;;;;;;4996473;28;20843;-84
2022/06/27 09:26:12;;;;;;;0.80;0.50;;;21.50;99.90;;;;;;4996431;28;20535;-84
2022/06/27 09:28:47;;;;;;;0.90;0.53;;;21.50;99.90;;;;;;4996763;28;20483;-82
2022/06/27 09:31:30;;;;;;;0.70;0.50;;;21.60;99.90;;;;;;4997742;28;20436;-82
2022/06/27 09:34:04;;;;;;;0.50;0.40;;;21.90;99.90;;;;;;4998065;28;20942;-82
2022/06/27 09:36:32;;;;;;;0.50;0.50;;;22.10;99.90;;;;;;4998136;28;20474;-82
2022/06/27 09:39:01;;;;;;;0.90;0.50;;;22.30;99.90;;;;;;4998215;28;20476;-82
2022/06/27 09:41:30;;;;;;;0.40;0.40;;;22.50;99.90;;;;;;4998704;28;20460;-82
2022/06/27 09:44:03;;;;;;;0.50;0.50;;;22.50;99.90;;;;;;4998591;28;20228;-82
2022/06/27 09:46:35;;;;;;;0.70;0.50;;;22.60;99.90;;;;;;4998007;28;20778;-82
2022/06/27 09:49:03;;;;;;;0.43;0.43;;;22.60;99.90;;;;;;4997733;28;20464;-82
2022/06/27 09:51:34;;;;;;;0.50;0.50;;;22.50;99.90;;;;;;4997363;28;20209;-82
2022/06/27 09:54:08;;;;;;;0.60;0.50;;;22.50;99.90;;;;;;4996301;28;20213;-82
2022/06/27 09:56:37;;;;;;;0.40;0.40;;;22.30;99.90;;;;;;4996174;28;20579;-82
2022/06/27 09:59:05;;;;;;;1.53;0.40;;;22.20;99.90;;;;;;4996088;28;20311;-82
2022/06/27 10:01:33;;;;;;;0.50;0.50;;;22.10;99.90;;;;;;4995942;28;20444;-82
2022/06/27 10:04:02;;;;;;;0.63;0.60;;;22.00;99.90;;;;;;4996046;28;20885;-82
2022/06/27 10:06:30;;;;;;;0.47;0.47;;;21.80;99.90;;;;;;4995480;28;20975;-82
2022/06/27 10:08:58;;;;;;;1.00;0.47;;;21.70;99.90;;;;;;4995382;28;20476;-82
2022/06/27 10:11:26;;;;;;;2.60;0.60;;;21.60;99.90;;;;;;4995662;28;20538;-82
2022/06/27 10:14:19;;;;;;;2.07;0.50;;;21.50;99.90;;;;;;4995837;28;20447;-82
2022/06/27 10:16:53;;;;;;;1.70;0.50;;;21.40;99.90;;;;;;4996527;28;20479;-82
2022/06/27 10:19:20;;;;;;;1.03;0.50;;;21.30;99.90;;;;;;4995254;28;20483;-82
2022/06/27 10:21:48;;;;;;;0.43;0.43;;;21.30;99.90;;;;;;4995645;28;20452;-82
2022/06/27 10:24:33;;;;;;;0.40;0.40;;;21.20;99.90;;;;;;4995601;28;20456;-82
2022/06/27 10:27:04;;;;;;;0.53;0.53;;;21.20;99.90;;;;;;4995413;28;20475;-82
2022/06/27 10:29:44;;;;;;;0.40;0.40;;;21.20;99.90;;;;;;4996233;28;20440;-82
2022/06/27 10:32:41;;;;;;;0.63;0.60;;;21.30;99.90;;;;;;4995774;28;20432;-83
2022/06/27 10:35:16;;;;;;;0.40;0.40;;;21.40;99.90;;;;;;4995474;28;20476;-83
2022/06/27 10:37:44;;;;;;;0.43;0.43;;;21.60;99.90;;;;;;4995477;28;20509;-82
2022/06/27 10:40:53;;;;;;;0.50;0.50;;;21.70;99.90;;;;;;4995358;28;20472;-82
2022/06/27 10:43:43;;;;;;;0.70;0.50;;;21.90;99.90;;;;;;4995762;28;20448;-82
2022/06/27 10:46:43;;;;;;;0.50;0.50;;;22.00;99.90;;;;;;4995294;28;20225;-83
2022/06/27 10:49:26;;;;;;;0.40;0.40;;;21.90;99.90;;;;;;4994819;28;20440;-83
2022/06/27 10:52:01;;;;;;;0.60;0.60;;;21.90;99.90;;;;;;4995488;28;20437;-82
2022/06/27 10:54:38;;;;;;;0.53;0.53;;;22.10;99.90;;;;;;4995335;28;20447;-82
2022/06/27 10:57:05;;;;;;;0.40;0.30;;;22.40;99.90;;;;;;4995966;28;20479;-82
2022/06/27 10:59:59;;;;;;;0.40;0.40;;;22.80;99.90;;;;;;4995294;28;20221;-82
2022/06/27 11:02:33;;;;;;;1.40;0.53;;;23.00;99.90;;;;;;4994397;28;20193;-82
2022/06/27 11:05:00;;;;;;;0.50;0.50;;;23.10;99.90;;;;;;4994903;28;20193;-82
2022/06/27 11:07:28;;;;;;;0.60;0.60;;;23.00;99.90;;;;;;4994380;28;20331;-82
2022/06/27 11:09:55;;;;;;;0.70;0.67;;;22.80;99.90;;;;;;4994808;28;20197;-83
2022/06/27 11:12:28;;;;;;;1.60;0.70;;;22.60;99.90;;;;;;4994582;28;20239;-82
2022/06/27 11:14:57;;;;;;;1.27;0.73;;;22.40;99.90;;;;;;4994543;28;20189;-83
2022/06/27 11:17:38;;;;;;;0.50;0.50;;;22.30;99.90;;;;;;4994496;28;20256;-83
2022/06/27 11:20:12;;;;;;;0.70;0.60;;;22.20;99.90;;;;;;4994115;28;20997;-82
2022/06/27 11:22:40;;;;;;;0.60;0.60;;;22.10;99.90;;;;;;4995111;28;20438;-83
2022/06/27 11:25:08;;;;;;;0.50;0.50;;;22.00;99.90;;;;;;4994643;28;20482;-83
2022/06/27 11:27:45;;;;;;;0.50;0.50;;;22.00;99.90;;;;;;4994173;28;20201;-83
2022/06/27 11:33:11;;;;;;;0.50;0.50;;;21.90;99.90;;;;;;4999637;28;20896;-83
2022/06/27 11:35:39;;;;;;;0.43;0.43;;;21.90;99.90;;;;;;4999842;28;20459;-82
2022/06/27 11:38:06;;;;;;;0.50;0.50;;;21.90;99.90;;;;;;4999967;28;20456;-82
2022/06/27 11:40:32;;;;;;;0.50;0.50;;;21.90;99.90;;;;;;4999849;28;20471;-83
2022/06/27 11:42:59;;;;;;;0.53;0.53;;;21.90;99.90;;;;;;5000133;28;20775;-83
2022/06/27 11:45:26;;;;;;;0.80;0.60;;;21.90;99.90;;;;;;4999275;28;20464;-82
2022/06/27 11:47:53;;;;;;;0.40;0.40;;;21.90;99.90;;;;;;5000049;28;20440;-83
2022/06/27 11:50:21;;;;;;;0.70;0.67;;;22.10;99.90;;;;;;4999359;28;20951;-82
2022/06/27 11:52:49;;;;;;;0.53;0.53;;;22.20;99.90;;;;;;4998829;28;20810;-82
2022/06/27 11:55:18;;;;;;;0.60;0.60;;;22.20;99.90;;;;;;4999836;28;20471;-82
2022/06/27 11:57:48;;;;;;;0.40;0.40;;;22.40;99.90;;;;;;4999770;28;20976;-82
2022/06/27 12:00:20;;;;;;;0.43;0.40;;;22.40;99.90;;;;;;4999330;28;20480;-82
2022/06/27 12:02:52;;;;;;;0.47;0.47;;;22.50;99.90;;;;;;4995745;28;20201;-82
2022/06/27 12:05:22;;;;;;;0.60;0.60;;;22.50;99.90;;;;;;4997813;28;20220;-82
2022/06/27 12:07:53;;;;;;;0.40;0.40;;;22.40;99.90;;;;;;4997523;28;20232;-83
2022/06/27 12:10:39;;;;;;;0.60;0.60;;;22.30;99.90;;;;;;4996798;28;20211;-82
2022/06/27 12:13:07;;;;;;;0.77;0.70;;;22.20;99.90;;;;;;4999918;28;20436;-82
2022/06/27 12:15:34;;;;;;;0.40;0.40;;;22.10;99.90;;;;;;5001664;28;20474;-82
2022/06/27 12:18:02;;;;;;;0.60;0.60;;;22.00;99.90;;;;;;5002898;28;20463;-82
2022/06/27 12:20:31;;;;;;;1.30;0.63;;;22.00;99.90;;;;;;4998086;28;20487;-82
2022/06/27 12:22:58;;;;;;;0.40;0.40;;;21.90;99.90;;;;;;4997826;28;20212;-81
2022/06/27 12:25:25;;;;;;;0.57;0.57;;;21.70;99.90;;;;;;4997621;28;20479;-82
2022/06/27 12:27:52;;;;;;;0.50;0.50;;;21.60;99.90;;;;;;4997595;28;20452;-82
2022/06/27 12:30:19;;;;;;;0.50;0.50;;;21.50;99.90;;;;;;4997812;28;20447;-82
2022/06/27 12:32:46;;;;;;;0.60;0.60;;;21.30;99.90;;;;;;4998022;28;20454;-82
2022/06/27 12:35:13;;;;;;;0.60;0.60;;;21.20;99.90;;;;;;4998692;28;20558;-82
2022/06/27 12:37:42;;;;;;;0.50;0.50;;;21.20;99.90;;;;;;4997481;28;20471;-82
2022/06/27 12:40:11;;;;;;;1.17;0.70;;;21.10;99.90;;;;;;4997876;28;20487;-82
2022/06/27 12:42:38;;;;;;;0.70;0.70;;;21.10;99.90;;;;;;4998033;28;20451;-82
2022/06/27 12:45:05;;;;;;;1.27;0.63;;;21.10;99.90;;;;;;4997751;28;20476;-82
2022/06/27 12:47:32;;;;;;;0.80;0.60;;;21.10;99.90;;;;;;4997968;28;20467;-82
2022/06/27 12:49:59;;;;;;;0.70;0.53;;;21.10;99.90;;;;;;4997482;28;20436;-82
2022/06/27 12:52:25;;;;;;;0.50;0.50;;;21.20;99.90;;;;;;4997223;28;20443;-82
2022/06/27 12:54:54;;;;;;;0.50;0.50;;;21.30;99.90;;;;;;4997223;28;20451;-82
2022/06/27 12:57:21;;;;;;;1.17;0.63;;;21.40;99.90;;;;;;4998838;28;20436;-82
2022/06/27 12:59:48;;;;;;;0.50;0.50;;;21.50;99.90;;;;;;4997903;28;20479;-82
2022/06/27 13:02:16;;;;;;;0.70;0.60;;;21.60;99.90;;;;;;4997539;28;20946;-82
2022/06/27 13:04:43;;;;;;;0.80;0.60;;;21.70;99.90;;;;;;4996859;28;20898;-82